createdAt,value
2023-05-02T00:00:10.292Z,5.80
2023-05-02T00:01:10.281Z,6.00
2023-05-02T00:02:10.305Z,6.30
2023-05-02T00:03:10.316Z,5.20
2023-05-02T00:04:10.371Z,6.30
2023-05-02T00:05:10.271Z,5.70
2023-05-02T00:06:10.245Z,6.50
2023-05-02T00:07:10.230Z,6.10
2023-05-02T00:08:10.199Z,5.90
2023-05-02T00:09:10.199Z,5.70
2023-05-02T00:10:10.256Z,5.60
2023-05-02T00:11:10.178Z,5.20
2023-05-02T00:12:10.213Z,5.70
2023-05-02T00:13:10.160Z,5.40
2023-05-02T00:14:10.108Z,5.40
2023-05-02T00:15:10.383Z,5.80
2023-05-02T00:16:10.114Z,6.20
2023-05-02T00:17:10.124Z,6.20
2023-05-02T00:18:10.306Z,5.80
2023-05-02T00:19:10.131Z,5.90
2023-05-02T00:20:10.058Z,5.80
2023-05-02T00:21:10.086Z,5.80
2023-05-02T00:22:10.036Z,5.50
2023-05-02T00:23:10.062Z,5.90
2023-05-02T00:24:10.042Z,6.30
2023-05-02T00:25:10.050Z,6.10
2023-05-02T00:26:09.978Z,6.60
2023-05-02T00:27:10.007Z,5.90
2023-05-02T00:28:09.980Z,6.20
2023-05-02T00:29:09.959Z,6.30
2023-05-02T00:30:09.948Z,6.00
2023-05-02T00:31:10.027Z,6.30
2023-05-02T00:32:09.913Z,6.00
2023-05-02T00:33:09.975Z,6.50
2023-05-02T00:34:09.904Z,6.00
2023-05-02T00:35:09.906Z,6.60
2023-05-02T00:36:10.158Z,6.40
2023-05-02T00:37:09.869Z,6.20
2023-05-02T00:38:09.843Z,6.80
2023-05-02T00:39:09.848Z,6.50
2023-05-02T00:40:09.837Z,6.80
2023-05-02T00:41:09.878Z,6.80
2023-05-02T00:42:09.809Z,6.60
2023-05-02T00:43:10.114Z,6.20
2023-05-02T00:44:09.771Z,6.50
2023-05-02T00:45:09.800Z,6.20
2023-05-02T00:46:09.837Z,7.00
2023-05-02T00:47:09.764Z,6.50
2023-05-02T00:48:09.748Z,6.70
2023-05-02T00:49:09.752Z,6.10
2023-05-02T00:50:09.764Z,6.10
2023-05-02T00:51:09.717Z,6.50
2023-05-02T00:52:09.684Z,7.10
2023-05-02T00:53:09.723Z,7.30
2023-05-02T00:54:09.704Z,6.90
2023-05-02T00:55:09.701Z,7.50
2023-05-02T00:56:10.207Z,7.30
2023-05-02T00:57:09.782Z,6.90
2023-05-02T00:58:09.658Z,6.80
2023-05-02T00:59:09.638Z,7.30
2023-05-02T01:00:09.604Z,7.10
2023-05-02T01:01:09.636Z,7.10
2023-05-02T01:02:09.692Z,7.80
2023-05-02T01:03:09.688Z,7.20
2023-05-02T01:04:09.669Z,7.90
2023-05-02T01:05:09.568Z,6.70
2023-05-02T01:06:09.587Z,7.00
2023-05-02T01:07:09.557Z,6.50
2023-05-02T01:08:09.493Z,6.00
2023-05-02T01:09:09.578Z,6.30
2023-05-02T01:10:09.488Z,6.00
2023-05-02T01:11:09.478Z,6.90
2023-05-02T01:12:09.462Z,6.80
2023-05-02T01:13:09.471Z,7.40
2023-05-02T01:14:09.450Z,8.00
2023-05-02T01:15:09.450Z,7.50
2023-05-02T01:16:09.471Z,7.50
2023-05-02T01:17:09.559Z,7.60
2023-05-02T01:18:09.418Z,7.30
2023-05-02T01:19:09.412Z,7.20
2023-05-02T01:20:09.375Z,6.90
2023-05-02T01:21:09.388Z,7.30
2023-05-02T01:22:09.447Z,7.60
2023-05-02T01:23:09.359Z,7.80
2023-05-02T01:24:09.329Z,7.90
2023-05-02T01:25:09.327Z,7.20
2023-05-02T01:26:09.307Z,7.10
2023-05-02T01:27:09.304Z,7.30
2023-05-02T01:28:09.270Z,7.40
2023-05-02T01:29:09.296Z,7.20
2023-05-02T01:30:09.283Z,7.20
2023-05-02T01:31:09.317Z,8.80
2023-05-02T01:32:09.335Z,8.30
2023-05-02T01:33:09.272Z,8.50
2023-05-02T01:34:09.254Z,8.00
2023-05-02T01:35:09.219Z,9.40
2023-05-02T01:36:09.178Z,9.50
2023-05-02T01:37:09.573Z,9.60
2023-05-02T01:38:09.240Z,10.40
2023-05-02T01:39:09.189Z,10.90
2023-05-02T01:40:09.208Z,10.50
2023-05-02T01:41:09.152Z,11.10
2023-05-02T01:42:09.108Z,10.60
2023-05-02T01:43:09.156Z,11.30
2023-05-02T01:44:09.104Z,10.20
2023-05-02T01:45:09.125Z,8.30
2023-05-02T01:46:09.097Z,8.20
2023-05-02T01:47:09.201Z,7.00
2023-05-02T01:48:09.127Z,7.00
2023-05-02T01:49:09.102Z,6.70
2023-05-02T01:50:09.086Z,6.50
2023-05-02T01:51:09.078Z,7.20
2023-05-02T01:52:08.995Z,8.00
2023-05-02T01:53:09.127Z,7.80
2023-05-02T01:54:09.004Z,8.40
2023-05-02T01:55:08.986Z,8.10
2023-05-02T01:56:08.957Z,7.80
2023-05-02T01:57:09.815Z,8.90
2023-05-02T01:58:08.930Z,8.70
2023-05-02T01:59:08.946Z,9.70
2023-05-02T02:00:08.947Z,10.60
2023-05-02T02:01:08.957Z,11.00
2023-05-02T02:02:08.877Z,11.00
2023-05-02T02:03:08.992Z,10.80
2023-05-02T02:04:08.892Z,10.80
2023-05-02T02:05:09.116Z,8.90
2023-05-02T02:06:08.864Z,10.30
2023-05-02T02:07:08.877Z,10.10
2023-05-02T02:08:08.821Z,10.40
2023-05-02T02:09:08.877Z,9.90
2023-05-02T02:10:08.799Z,8.70
2023-05-02T02:11:08.812Z,8.30
2023-05-02T02:12:08.788Z,8.10
2023-05-02T02:13:08.798Z,8.00
2023-05-02T02:14:08.758Z,7.50
2023-05-02T02:15:08.760Z,8.40
2023-05-02T02:16:08.758Z,8.40
2023-05-02T02:17:08.783Z,7.80
2023-05-02T02:18:08.773Z,8.10
2023-05-02T02:19:08.762Z,8.50
2023-05-02T02:20:08.703Z,8.60
2023-05-02T02:21:08.739Z,8.20
2023-05-02T02:22:08.657Z,7.10
2023-05-02T02:23:08.709Z,8.10
2023-05-02T02:24:08.622Z,7.80
2023-05-02T02:25:08.717Z,8.40
2023-05-02T02:26:08.608Z,7.50
2023-05-02T02:27:08.615Z,8.40
2023-05-02T02:28:08.589Z,8.40
2023-05-02T02:29:08.608Z,9.20
2023-05-02T02:30:08.560Z,9.10
2023-05-02T02:31:08.666Z,8.70
2023-05-02T02:32:08.662Z,8.80
2023-05-02T02:33:08.573Z,8.60
2023-05-02T02:34:08.528Z,8.70
2023-05-02T02:35:08.545Z,8.20
2023-05-02T02:36:08.523Z,8.20
2023-05-02T02:37:08.603Z,8.90
2023-05-02T02:38:08.564Z,8.80
2023-05-02T02:39:08.482Z,9.00
2023-05-02T02:40:08.452Z,8.80
2023-05-02T02:41:08.489Z,9.00
2023-05-02T02:42:08.422Z,8.50
2023-05-02T02:43:08.481Z,8.50
2023-05-02T02:44:08.399Z,9.30
2023-05-02T02:45:08.416Z,8.90
2023-05-02T02:46:08.397Z,10.50
2023-05-02T02:47:08.381Z,11.00
2023-05-02T02:48:08.396Z,10.10
2023-05-02T02:49:08.398Z,10.90
2023-05-02T02:50:08.350Z,11.70
2023-05-02T02:51:08.350Z,10.90
2023-05-02T02:52:08.334Z,11.60
2023-05-02T02:53:08.305Z,12.00
2023-05-02T02:54:23.013Z,12.30
2023-05-02T02:55:09.329Z,12.20
2023-05-02T02:56:08.285Z,12.50
2023-05-02T02:57:08.238Z,12.70
2023-05-02T02:58:08.350Z,13.20
2023-05-02T02:59:08.433Z,12.70
2023-05-02T03:00:08.270Z,13.10
2023-05-02T03:01:08.195Z,12.00
2023-05-02T03:02:08.428Z,12.60
2023-05-02T03:03:08.288Z,13.10
2023-05-02T03:04:08.252Z,13.40
2023-05-02T03:05:08.142Z,13.60
2023-05-02T03:06:08.204Z,14.00
2023-05-02T03:07:08.122Z,13.50
2023-05-02T03:08:08.146Z,13.00
2023-05-02T03:09:08.163Z,14.20
2023-05-02T03:10:08.134Z,14.30
2023-05-02T03:11:08.091Z,14.80
2023-05-02T03:12:08.086Z,15.00
2023-05-02T03:13:08.080Z,15.20
2023-05-02T03:14:08.078Z,15.60
2023-05-02T03:15:08.038Z,14.70
2023-05-02T03:16:08.120Z,15.90
2023-05-02T03:17:08.092Z,15.70
2023-05-02T03:18:08.103Z,15.10
2023-05-02T03:19:07.992Z,14.80
2023-05-02T03:20:08.070Z,13.90
2023-05-02T03:21:07.961Z,16.10
2023-05-02T03:22:07.979Z,15.70
2023-05-02T03:23:07.938Z,15.50
2023-05-02T03:24:08.052Z,15.40
2023-05-02T03:25:07.945Z,16.00
2023-05-02T03:26:07.934Z,15.40
2023-05-02T03:27:07.905Z,15.10
2023-05-02T03:28:07.912Z,15.90
2023-05-02T03:29:07.984Z,15.60
2023-05-02T03:30:07.895Z,16.30
2023-05-02T03:31:07.924Z,17.00
2023-05-02T03:32:07.961Z,17.90
2023-05-02T03:33:08.213Z,17.70
2023-05-02T03:34:07.843Z,18.20
2023-05-02T03:35:07.814Z,18.70
2023-05-02T03:36:07.803Z,17.30
2023-05-02T03:37:07.798Z,18.30
2023-05-02T03:38:07.897Z,18.40
2023-05-02T03:39:07.913Z,18.60
2023-05-02T03:40:08.081Z,17.10
2023-05-02T03:41:07.783Z,17.70
2023-05-02T03:42:07.747Z,16.50
2023-05-02T03:43:07.722Z,17.60
2023-05-02T03:44:07.814Z,17.40
2023-05-02T03:45:07.738Z,19.10
2023-05-02T03:46:07.732Z,18.10
2023-05-02T03:47:07.813Z,18.30
2023-05-02T03:48:07.768Z,17.10
2023-05-02T03:49:07.662Z,17.30
2023-05-02T03:50:07.695Z,17.60
2023-05-02T03:51:07.634Z,17.70
2023-05-02T03:52:07.634Z,18.30
2023-05-02T03:53:07.606Z,18.30
2023-05-02T03:54:07.642Z,18.80
2023-05-02T03:55:07.588Z,17.20
2023-05-02T03:56:07.592Z,17.70
2023-05-02T03:57:07.550Z,17.20
2023-05-02T03:58:07.623Z,19.10
2023-05-02T03:59:07.550Z,18.30
2023-05-02T04:00:07.903Z,19.10
2023-05-02T04:01:07.556Z,19.00
2023-05-02T04:02:07.583Z,18.80
2023-05-02T04:03:07.572Z,20.40
2023-05-02T04:04:07.578Z,19.30
2023-05-02T04:05:07.490Z,20.10
2023-05-02T04:06:07.557Z,20.00
2023-05-02T04:07:07.461Z,20.10
2023-05-02T04:08:07.458Z,22.80
2023-05-02T04:09:07.437Z,25.50
2023-05-02T04:10:07.466Z,21.40
2023-05-02T04:11:07.414Z,22.50
2023-05-02T04:12:07.472Z,22.80
2023-05-02T04:13:07.394Z,26.00
2023-05-02T04:14:07.450Z,27.50
2023-05-02T04:15:07.371Z,26.50
2023-05-02T04:16:07.380Z,26.10
2023-05-02T04:17:07.501Z,26.70
2023-05-02T04:18:07.423Z,27.80
2023-05-02T04:19:07.304Z,28.40
2023-05-02T04:20:08.100Z,27.00
2023-05-02T04:21:07.306Z,29.10
2023-05-02T04:22:07.323Z,28.00
2023-05-02T04:23:07.293Z,29.70
2023-05-02T04:24:07.301Z,30.20
2023-05-02T04:25:07.279Z,29.50
2023-05-02T04:26:07.277Z,29.70
2023-05-02T04:27:07.220Z,30.20
2023-05-02T04:28:07.232Z,30.80
2023-05-02T04:29:07.211Z,29.20
2023-05-02T04:30:07.218Z,29.90
2023-05-02T04:31:07.223Z,30.80
2023-05-02T04:32:07.203Z,29.70
2023-05-02T04:33:07.212Z,29.70
2023-05-02T04:34:07.170Z,29.00
2023-05-02T04:35:07.156Z,29.70
2023-05-02T04:36:07.165Z,30.00
2023-05-02T04:37:07.130Z,29.50
2023-05-02T04:38:07.219Z,30.10
2023-05-02T04:39:07.127Z,29.30
2023-05-02T04:40:07.114Z,28.70
2023-05-02T04:41:09.221Z,29.80
2023-05-02T04:42:07.092Z,29.50
2023-05-02T04:43:07.033Z,28.40
2023-05-02T04:44:07.066Z,29.20
2023-05-02T04:45:07.044Z,29.50
2023-05-02T04:46:07.069Z,29.90
2023-05-02T04:47:07.011Z,29.40
2023-05-02T04:48:07.045Z,28.60
2023-05-02T04:49:06.970Z,28.70
2023-05-02T04:50:06.998Z,29.10
2023-05-02T04:51:07.013Z,29.60
2023-05-02T04:52:06.972Z,29.00
2023-05-02T04:53:06.914Z,29.60
2023-05-02T04:54:07.003Z,30.50
2023-05-02T04:55:06.935Z,31.50
2023-05-02T04:56:06.908Z,31.00
2023-05-02T04:57:06.888Z,30.60
2023-05-02T04:58:06.990Z,30.40
2023-05-02T04:59:06.872Z,32.30
2023-05-02T05:00:06.874Z,31.80
2023-05-02T05:01:07.129Z,32.40
2023-05-02T05:02:07.021Z,33.60
2023-05-02T05:03:06.933Z,35.70
2023-05-02T05:04:06.933Z,33.60
2023-05-02T05:05:07.034Z,35.00
2023-05-02T05:06:06.853Z,32.70
2023-05-02T05:07:06.780Z,34.70
2023-05-02T05:08:06.874Z,34.60
2023-05-02T05:09:06.782Z,36.10
2023-05-02T05:10:06.780Z,34.50
2023-05-02T05:11:06.745Z,35.50
2023-05-02T05:12:06.794Z,35.00
2023-05-02T05:13:06.753Z,34.70
2023-05-02T05:14:06.743Z,34.10
2023-05-02T05:15:06.745Z,36.30
2023-05-02T05:16:06.722Z,35.30
2023-05-02T05:17:06.904Z,34.20
2023-05-02T05:18:06.708Z,36.80
2023-05-02T05:19:06.643Z,36.30
2023-05-02T05:20:07.698Z,34.40
2023-05-02T05:21:06.633Z,34.60
2023-05-02T05:22:06.754Z,33.90
2023-05-02T05:23:06.633Z,34.90
2023-05-02T05:24:06.610Z,35.10
2023-05-02T05:25:06.577Z,35.60
2023-05-02T05:26:06.600Z,33.60
2023-05-02T05:27:06.666Z,35.10
2023-05-02T05:28:06.577Z,36.10
2023-05-02T05:29:06.640Z,35.00
2023-05-02T05:30:06.546Z,35.90
2023-05-02T05:31:06.571Z,36.20
2023-05-02T05:32:06.815Z,34.90
2023-05-02T05:33:06.535Z,34.40
2023-05-02T05:34:06.585Z,32.50
2023-05-02T05:35:06.531Z,35.00
2023-05-02T05:36:06.532Z,33.40
2023-05-02T05:37:06.425Z,34.00
2023-05-02T05:38:06.546Z,32.50
2023-05-02T05:39:07.546Z,30.40
2023-05-02T05:40:06.409Z,31.20
2023-05-02T05:41:06.384Z,30.50
2023-05-02T05:42:06.689Z,31.40
2023-05-02T05:43:06.734Z,31.80
2023-05-02T05:44:06.353Z,31.90
2023-05-02T05:45:06.350Z,29.30
2023-05-02T05:46:06.356Z,29.30
2023-05-02T05:47:06.412Z,29.30
2023-05-02T05:48:06.571Z,29.80
2023-05-02T05:49:06.851Z,28.80
2023-05-02T05:50:06.308Z,29.20
2023-05-02T05:51:06.311Z,29.10
2023-05-02T05:52:06.444Z,29.00
2023-05-02T05:53:06.505Z,27.70
2023-05-02T05:54:06.252Z,27.30
2023-05-02T05:55:06.243Z,27.10
2023-05-02T05:56:06.566Z,27.20
2023-05-02T05:57:06.190Z,26.90
2023-05-02T05:58:06.226Z,27.30
2023-05-02T05:59:06.312Z,26.20
2023-05-02T06:00:06.303Z,26.20
2023-05-02T06:01:06.699Z,24.90
2023-05-02T06:02:06.553Z,25.70
2023-05-02T06:03:08.132Z,26.40
2023-05-02T06:04:06.198Z,25.00
2023-05-02T06:05:06.152Z,25.10
2023-05-02T06:06:06.403Z,24.30
2023-05-02T06:07:06.260Z,24.40
2023-05-02T06:08:06.092Z,24.90
2023-05-02T06:09:06.083Z,24.00
2023-05-02T06:10:06.094Z,24.40
2023-05-02T06:11:06.113Z,23.20
2023-05-02T06:12:06.069Z,24.20
2023-05-02T06:13:06.030Z,23.60
2023-05-02T06:14:06.029Z,22.60
2023-05-02T06:15:06.025Z,24.00
2023-05-02T06:16:06.467Z,20.90
2023-05-02T06:17:05.960Z,22.70
2023-05-02T06:18:06.043Z,23.10
2023-05-02T06:19:05.945Z,22.60
2023-05-02T06:20:05.950Z,22.00
2023-05-02T06:21:05.955Z,19.60
2023-05-02T06:22:05.951Z,18.40
2023-05-02T06:23:06.644Z,18.90
2023-05-02T06:24:06.466Z,18.80
2023-05-02T06:25:05.863Z,18.00
2023-05-02T06:26:05.897Z,18.60
2023-05-02T06:27:05.857Z,18.00
2023-05-02T06:28:05.881Z,16.70
2023-05-02T06:29:05.934Z,16.30
2023-05-02T06:30:06.005Z,16.50
2023-05-02T06:31:06.141Z,16.00
2023-05-02T06:32:05.960Z,16.00
2023-05-02T06:33:05.923Z,16.00
2023-05-02T06:34:05.930Z,14.70
2023-05-02T06:35:05.762Z,14.60
2023-05-02T06:36:05.799Z,14.40
2023-05-02T06:37:05.806Z,15.00
2023-05-02T06:38:05.752Z,13.10
2023-05-02T06:39:05.709Z,14.10
2023-05-02T06:40:05.852Z,14.30
2023-05-02T06:41:05.690Z,14.00
2023-05-02T06:42:05.738Z,13.50
2023-05-02T06:43:05.666Z,13.30
2023-05-02T06:44:05.772Z,14.20
2023-05-02T06:45:05.855Z,13.50
2023-05-02T06:46:05.645Z,13.80
2023-05-02T06:47:05.648Z,14.60
2023-05-02T06:48:05.672Z,14.00
2023-05-02T06:49:05.613Z,13.70
2023-05-02T06:50:05.616Z,13.40
2023-05-02T06:51:05.568Z,14.00
2023-05-02T06:52:05.603Z,12.00
2023-05-02T06:53:05.551Z,12.40
2023-05-02T06:54:05.547Z,12.70
2023-05-02T06:55:05.521Z,11.40
2023-05-02T06:56:05.582Z,11.20
2023-05-02T06:57:05.554Z,11.00
2023-05-02T06:58:05.535Z,11.20
2023-05-02T06:59:05.491Z,12.00
2023-05-02T07:00:05.523Z,11.80
2023-05-02T07:01:05.517Z,11.80
2023-05-02T07:02:05.715Z,11.10
2023-05-02T07:03:05.509Z,10.80
2023-05-02T07:04:05.560Z,10.60
2023-05-02T07:05:05.427Z,10.10
2023-05-02T07:06:05.478Z,10.00
2023-05-02T07:07:05.743Z,10.00
2023-05-02T07:08:05.486Z,10.50
2023-05-02T07:09:05.406Z,9.90
2023-05-02T07:10:05.381Z,10.10
2023-05-02T07:11:05.406Z,10.10
2023-05-02T07:12:07.097Z,9.90
2023-05-02T07:13:05.331Z,9.50
2023-05-02T07:14:05.318Z,9.80
2023-05-02T07:15:05.368Z,8.70
2023-05-02T07:16:05.327Z,8.50
2023-05-02T07:17:05.396Z,9.00
2023-05-02T07:18:05.310Z,9.20
2023-05-02T07:19:05.296Z,9.10
2023-05-02T07:20:05.601Z,8.30
2023-05-02T07:21:05.284Z,8.20
2023-05-02T07:22:05.319Z,8.20
2023-05-02T07:23:05.565Z,7.50
2023-05-02T07:24:05.524Z,7.90
2023-05-02T07:25:05.592Z,7.50
2023-05-02T07:26:06.432Z,6.80
2023-05-02T07:27:05.212Z,7.00
2023-05-02T07:28:05.141Z,6.60
2023-05-02T07:29:05.169Z,8.10
2023-05-02T07:30:05.162Z,6.60
2023-05-02T07:31:05.153Z,6.70
2023-05-02T07:32:05.170Z,7.20
2023-05-02T07:33:05.201Z,5.90
2023-05-02T07:34:05.125Z,6.00
2023-05-02T07:35:05.148Z,5.90
2023-05-02T07:36:05.056Z,6.00
2023-05-02T07:37:05.065Z,6.00
2023-05-02T07:38:05.082Z,5.40
2023-05-02T07:39:05.129Z,6.40
2023-05-02T07:40:05.237Z,5.90
2023-05-02T07:41:05.075Z,6.40
2023-05-02T07:42:05.022Z,5.60
2023-05-02T07:43:05.057Z,5.50
2023-05-02T07:44:04.985Z,6.00
2023-05-02T07:45:05.171Z,5.50
2023-05-02T07:46:05.006Z,5.70
2023-05-02T07:47:04.993Z,6.00
2023-05-02T07:48:04.952Z,6.70
2023-05-02T07:49:04.934Z,6.40
2023-05-02T07:50:04.953Z,6.00
2023-05-02T07:51:04.969Z,6.40
2023-05-02T07:52:04.912Z,6.50
2023-05-02T07:53:04.946Z,6.90
2023-05-02T07:54:04.872Z,6.90
2023-05-02T07:55:04.928Z,6.80
2023-05-02T07:56:05.000Z,6.40
2023-05-02T07:57:05.057Z,6.00
2023-05-02T07:58:04.828Z,6.60
2023-05-02T07:59:05.686Z,6.20
2023-05-02T08:00:05.112Z,7.00
2023-05-02T08:01:04.856Z,7.30
2023-05-02T08:02:05.386Z,6.90
2023-05-02T08:03:05.320Z,7.60
2023-05-02T08:04:04.898Z,7.30
2023-05-02T08:05:04.878Z,6.90
2023-05-02T08:06:04.946Z,7.30
2023-05-02T08:07:04.781Z,7.50
2023-05-02T08:08:04.745Z,7.20
2023-05-02T08:09:04.835Z,7.20
2023-05-02T08:10:04.807Z,7.30
2023-05-02T08:11:04.708Z,7.00
2023-05-02T08:12:05.083Z,6.90
2023-05-02T08:13:04.670Z,7.50
2023-05-02T08:14:04.670Z,8.90
2023-05-02T08:15:04.659Z,8.80
2023-05-02T08:16:04.700Z,7.60
2023-05-02T08:17:04.622Z,8.20
2023-05-02T08:18:04.621Z,7.80
2023-05-02T08:19:04.672Z,7.60
2023-05-02T08:20:05.364Z,7.60
2023-05-02T08:21:04.637Z,8.00
2023-05-02T08:22:04.544Z,7.70
2023-05-02T08:23:04.600Z,7.50
2023-05-02T08:24:04.635Z,8.00
2023-05-02T08:25:04.568Z,8.60
2023-05-02T08:26:04.753Z,8.30
2023-05-02T08:27:04.714Z,7.80
2023-05-02T08:28:04.486Z,7.80
2023-05-02T08:29:04.584Z,7.20
2023-05-02T08:30:04.809Z,7.30
2023-05-02T08:31:04.502Z,6.70
2023-05-02T08:32:04.656Z,7.20
2023-05-02T08:33:04.480Z,7.80
2023-05-02T08:34:04.437Z,7.10
2023-05-02T08:35:04.456Z,7.60
2023-05-02T08:36:04.429Z,7.50
2023-05-02T08:37:04.393Z,7.10
2023-05-02T08:38:04.358Z,7.80
2023-05-02T08:39:04.405Z,7.00
2023-05-02T08:40:04.682Z,6.80
2023-05-02T08:41:04.539Z,6.80
2023-05-02T08:42:04.380Z,7.10
2023-05-02T08:43:04.356Z,6.90
2023-05-02T08:44:04.362Z,7.70
2023-05-02T08:45:04.332Z,7.50
2023-05-02T08:46:04.394Z,7.50
2023-05-02T08:47:04.295Z,7.30
2023-05-02T08:48:04.314Z,7.80
2023-05-02T08:49:04.267Z,7.70
2023-05-02T08:50:04.225Z,7.50
2023-05-02T08:51:04.411Z,7.70
2023-05-02T08:52:04.234Z,7.30
2023-05-02T08:53:04.207Z,6.90
2023-05-02T08:54:04.191Z,7.00
2023-05-02T08:55:04.426Z,6.90
2023-05-02T08:56:04.154Z,6.50
2023-05-02T08:57:04.175Z,6.70
2023-05-02T08:58:04.114Z,7.30
2023-05-02T08:59:04.147Z,7.10
2023-05-02T09:00:04.132Z,5.60
2023-05-02T09:01:04.169Z,5.30
2023-05-02T09:02:04.113Z,4.70
2023-05-02T09:03:04.620Z,4.70
2023-05-02T09:04:04.200Z,3.80
2023-05-02T09:05:04.104Z,4.10
2023-05-02T09:06:04.064Z,4.00
2023-05-02T09:07:04.063Z,3.90
2023-05-02T09:08:04.064Z,4.10
2023-05-02T09:09:04.036Z,3.70
2023-05-02T09:10:04.081Z,3.70
2023-05-02T09:11:04.047Z,4.00
2023-05-02T09:12:03.974Z,3.60
2023-05-02T09:13:04.049Z,3.10
2023-05-02T09:14:04.092Z,3.80
2023-05-02T09:15:03.977Z,3.40
2023-05-02T09:16:03.968Z,3.60
2023-05-02T09:17:04.101Z,3.10
2023-05-02T09:18:03.941Z,3.50
2023-05-02T09:19:04.703Z,3.30
2023-05-02T09:20:03.957Z,3.10
2023-05-02T09:21:03.878Z,3.00
2023-05-02T09:22:03.952Z,2.90
2023-05-02T09:23:03.904Z,3.00
2023-05-02T09:24:03.940Z,3.40
2023-05-02T09:25:03.921Z,3.20
2023-05-02T09:26:03.897Z,2.50
2023-05-02T09:27:03.904Z,2.50
2023-05-02T09:28:03.790Z,2.40
2023-05-02T09:29:03.810Z,2.60
2023-05-02T09:30:03.788Z,2.30
2023-05-02T09:31:03.832Z,2.90
2023-05-02T09:32:03.793Z,2.40
2023-05-02T09:33:03.813Z,2.50
2023-05-02T09:34:03.708Z,2.60
2023-05-02T09:35:03.742Z,2.50
2023-05-02T09:36:03.708Z,2.40
2023-05-02T09:37:03.723Z,2.50
2023-05-02T09:38:03.672Z,2.40
2023-05-02T09:39:03.682Z,2.00
2023-05-02T09:40:03.649Z,2.60
2023-05-02T09:41:04.486Z,2.40
2023-05-02T09:42:03.655Z,2.50
2023-05-02T09:43:03.646Z,2.10
2023-05-02T09:44:03.749Z,2.30
2023-05-02T09:45:03.657Z,1.90
2023-05-02T09:46:03.647Z,2.10
2023-05-02T09:47:03.921Z,2.30
2023-05-02T09:48:04.011Z,2.20
2023-05-02T09:49:03.703Z,2.20
2023-05-02T09:50:03.596Z,2.20
2023-05-02T09:51:03.642Z,2.10
2023-05-02T09:52:03.913Z,1.70
2023-05-02T09:53:04.263Z,1.70
2023-05-02T09:54:03.561Z,1.90
2023-05-02T09:55:03.546Z,2.00
2023-05-02T09:56:03.521Z,1.90
2023-05-02T09:57:03.756Z,1.70
2023-05-02T09:58:03.843Z,1.80
2023-05-02T09:59:03.444Z,1.70
2023-05-02T10:00:03.667Z,1.70
2023-05-02T10:01:03.524Z,1.70
2023-05-02T10:02:03.520Z,2.00
2023-05-02T10:03:03.492Z,1.60
2023-05-02T10:04:03.501Z,1.40
2023-05-02T10:05:03.707Z,1.80
2023-05-02T10:06:03.686Z,1.70
2023-05-02T10:07:03.389Z,1.40
2023-05-02T10:08:03.373Z,1.60
2023-05-02T10:09:03.354Z,1.60
2023-05-02T10:10:03.329Z,1.60
2023-05-02T10:11:03.337Z,1.70
2023-05-02T10:12:03.363Z,1.80
2023-05-02T10:13:03.284Z,1.40
2023-05-02T10:14:03.625Z,1.40
2023-05-02T10:15:03.309Z,1.60
2023-05-02T10:16:03.389Z,1.50
2023-05-02T10:17:03.284Z,1.40
2023-05-02T10:18:03.313Z,1.80
2023-05-02T10:19:03.365Z,1.30
2023-05-02T10:20:03.202Z,1.40
2023-05-02T10:21:03.253Z,1.50
2023-05-02T10:22:03.204Z,1.30
2023-05-02T10:23:03.215Z,1.60
2023-05-02T10:24:03.177Z,1.50
2023-05-02T10:25:03.660Z,1.30
2023-05-02T10:26:03.643Z,1.40
2023-05-02T10:27:03.179Z,1.50
2023-05-02T10:28:03.113Z,1.60
2023-05-02T10:29:03.151Z,1.40
2023-05-02T10:30:03.103Z,1.50
2023-05-02T10:31:03.366Z,1.50
2023-05-02T10:32:03.206Z,1.30
2023-05-02T10:33:03.141Z,1.50
2023-05-02T10:34:03.038Z,1.50
2023-05-02T10:35:03.261Z,1.60
2023-05-02T10:36:03.407Z,1.60
2023-05-02T10:37:03.053Z,1.60
2023-05-02T10:38:03.012Z,1.80
2023-05-02T10:39:02.997Z,1.70
2023-05-02T10:40:03.104Z,1.60
2023-05-02T10:41:03.019Z,1.70
2023-05-02T10:42:03.114Z,2.30
2023-05-02T10:43:03.087Z,1.80
2023-05-02T10:44:02.942Z,2.10
2023-05-02T10:45:03.216Z,1.60
2023-05-02T10:46:03.076Z,1.90
2023-05-02T10:47:03.106Z,1.80
2023-05-02T10:48:03.024Z,1.90
2023-05-02T10:49:02.954Z,1.90
2023-05-02T10:50:02.951Z,2.00
2023-05-02T10:51:02.950Z,2.30
2023-05-02T10:52:02.861Z,2.20
2023-05-02T10:53:03.561Z,2.00
2023-05-02T10:54:02.837Z,2.30
2023-05-02T10:55:02.860Z,2.30
2023-05-02T10:56:02.779Z,2.50
2023-05-02T10:57:02.807Z,2.60
2023-05-02T10:58:02.784Z,2.70
2023-05-02T10:59:02.832Z,2.50
2023-05-02T11:00:02.834Z,2.60
2023-05-02T11:01:02.868Z,2.80
2023-05-02T11:02:04.544Z,2.60
2023-05-02T11:03:03.125Z,2.60
2023-05-02T11:04:02.833Z,2.70
2023-05-02T11:05:03.287Z,2.50
2023-05-02T11:06:02.865Z,2.50
2023-05-02T11:07:02.697Z,2.90
2023-05-02T11:08:02.854Z,2.40
2023-05-02T11:09:02.700Z,2.40
2023-05-02T11:10:02.683Z,2.50
2023-05-02T11:11:02.672Z,2.60
2023-05-02T11:12:02.650Z,2.40
2023-05-02T11:13:02.634Z,2.30
2023-05-02T11:14:02.622Z,2.50
2023-05-02T11:15:02.805Z,2.40
2023-05-02T11:16:02.655Z,2.20
2023-05-02T11:17:02.671Z,2.50
2023-05-02T11:18:02.702Z,2.20
2023-05-02T11:19:02.805Z,2.50
2023-05-02T11:20:02.540Z,1.80
2023-05-02T11:21:02.570Z,2.40
2023-05-02T11:22:02.524Z,2.00
2023-05-02T11:23:02.511Z,2.20
2023-05-02T11:24:02.484Z,2.10
2023-05-02T11:25:02.699Z,2.00
2023-05-02T11:26:02.539Z,1.90
2023-05-02T11:27:02.669Z,2.10
2023-05-02T11:28:02.437Z,1.80
2023-05-02T11:29:02.430Z,1.80
2023-05-02T11:30:02.551Z,1.60
2023-05-02T11:31:02.438Z,1.70
2023-05-02T11:32:02.468Z,1.70
2023-05-02T11:33:02.404Z,1.70
2023-05-02T11:34:02.463Z,1.20
2023-05-02T11:35:02.728Z,1.60
2023-05-02T11:36:02.592Z,1.50
2023-05-02T11:37:02.576Z,1.60
2023-05-02T11:38:02.807Z,1.70
2023-05-02T11:39:02.898Z,1.70
2023-05-02T11:40:02.335Z,1.70
2023-05-02T11:41:02.290Z,1.50
2023-05-02T11:42:02.417Z,1.90
2023-05-02T11:43:02.444Z,1.90
2023-05-02T11:44:02.342Z,1.80
2023-05-02T11:45:02.606Z,1.70
2023-05-02T11:46:02.738Z,1.80
2023-05-02T11:47:02.771Z,1.90
2023-05-02T11:48:02.427Z,1.60
2023-05-02T11:49:02.262Z,1.80
2023-05-02T11:50:02.216Z,1.90
2023-05-02T11:51:02.305Z,1.90
2023-05-02T11:52:02.176Z,2.10
2023-05-02T11:53:02.261Z,2.20
2023-05-02T11:54:02.225Z,2.40
2023-05-02T11:55:02.487Z,2.40
2023-05-02T11:56:02.243Z,2.70
2023-05-02T11:57:02.128Z,2.70
2023-05-02T11:58:02.128Z,2.60
2023-05-02T11:59:02.113Z,2.60
2023-05-02T12:00:02.175Z,2.60
2023-05-02T12:01:02.051Z,2.70
2023-05-02T12:02:02.071Z,3.00
2023-05-02T12:03:02.208Z,2.70
2023-05-02T12:04:02.100Z,2.60
2023-05-02T12:05:02.277Z,3.10
2023-05-02T12:06:02.297Z,3.10
2023-05-02T12:07:02.130Z,3.00
2023-05-02T12:08:03.540Z,2.90
2023-05-02T12:09:01.990Z,2.60
2023-05-02T12:10:01.984Z,2.50
2023-05-02T12:11:01.947Z,2.70
2023-05-02T12:12:02.062Z,2.50
2023-05-02T12:13:01.946Z,2.30
2023-05-02T12:14:01.929Z,2.40
2023-05-02T12:15:02.409Z,2.40
2023-05-02T12:16:01.973Z,2.20
2023-05-02T12:17:01.877Z,2.10
2023-05-02T12:18:02.087Z,2.40
2023-05-02T12:19:01.859Z,2.10
2023-05-02T12:20:01.930Z,2.10
2023-05-02T12:21:01.940Z,2.30
2023-05-02T12:22:02.332Z,2.00
2023-05-02T12:23:01.817Z,2.30
2023-05-02T12:24:01.854Z,2.20
2023-05-02T12:25:02.124Z,2.50
2023-05-02T12:26:01.859Z,3.10
2023-05-02T12:27:02.024Z,2.10
2023-05-02T12:28:01.939Z,1.90
2023-05-02T12:29:01.759Z,2.10
2023-05-02T12:30:02.025Z,1.80
2023-05-02T12:31:01.753Z,2.00
2023-05-02T12:32:01.782Z,2.00
2023-05-02T12:33:01.783Z,2.40
2023-05-02T12:34:01.869Z,2.40
2023-05-02T12:35:01.670Z,2.40
2023-05-02T12:36:01.847Z,2.40
2023-05-02T12:37:01.688Z,2.60
2023-05-02T12:38:01.799Z,2.30
2023-05-02T12:39:01.658Z,2.70
2023-05-02T12:40:01.966Z,2.40
2023-05-02T12:41:01.741Z,2.10
2023-05-02T12:42:01.778Z,2.20
2023-05-02T12:43:01.571Z,2.30
2023-05-02T12:44:01.786Z,2.60
2023-05-02T12:45:01.568Z,2.90
2023-05-02T12:46:01.576Z,2.50
2023-05-02T12:47:01.609Z,2.70
2023-05-02T12:48:01.629Z,2.80
2023-05-02T12:49:01.670Z,2.70
2023-05-02T12:50:01.754Z,2.80
2023-05-02T12:51:01.562Z,3.00
2023-05-02T12:52:01.771Z,2.80
2023-05-02T12:53:01.912Z,2.90
2023-05-02T12:54:01.733Z,2.90
2023-05-02T12:55:01.596Z,3.10
2023-05-02T12:56:01.453Z,3.40
2023-05-02T12:57:01.917Z,3.00
2023-05-02T12:58:01.854Z,3.30
2023-05-02T12:59:01.719Z,3.00
2023-05-02T13:00:01.918Z,3.70
2023-05-02T13:01:01.494Z,3.50
2023-05-02T13:02:01.414Z,3.40
2023-05-02T13:03:01.555Z,3.40
2023-05-02T13:04:02.006Z,3.20
2023-05-02T13:05:01.350Z,3.10
2023-05-02T13:06:01.381Z,3.90
2023-05-02T13:07:05.976Z,3.90
2023-05-02T13:08:01.803Z,3.80
2023-05-02T13:09:03.198Z,3.50